createdAt,value
2024-02-13T00:00:00.642Z,94439.00
2024-02-13T00:02:00.737Z,94442.00
2024-02-13T00:03:00.847Z,94445.00
2024-02-13T00:04:00.827Z,94445.00
2024-02-13T00:05:00.808Z,94444.00
2024-02-13T00:06:00.836Z,94446.00
2024-02-13T00:07:00.828Z,94446.00
2024-02-13T00:08:00.910Z,94446.00
2024-02-13T00:09:00.995Z,94445.00
2024-02-13T00:10:00.872Z,94444.00
2024-02-13T00:11:01.728Z,94447.00
2024-02-13T00:12:01.003Z,94448.00
2024-02-13T00:13:01.008Z,94452.00
2024-02-13T00:14:01.069Z,94451.00
2024-02-13T00:15:01.103Z,94453.00
2024-02-13T00:16:01.083Z,94458.00
2024-02-13T00:17:01.122Z,94460.00
2024-02-13T00:18:01.322Z,94462.00
2024-02-13T00:19:01.189Z,94462.00
2024-02-13T00:20:01.154Z,94462.00
2024-02-13T00:21:01.264Z,94462.00
2024-02-13T00:22:01.194Z,94463.00
2024-02-13T00:23:01.236Z,94465.00
2024-02-13T00:24:01.293Z,94468.00
2024-02-13T00:25:01.231Z,94471.00
2024-02-13T00:26:01.229Z,94473.00
2024-02-13T00:27:01.273Z,94475.00
2024-02-13T00:28:01.274Z,94476.00
2024-02-13T00:29:01.351Z,94478.00
2024-02-13T00:30:01.401Z,94478.00
2024-02-13T00:31:01.394Z,94478.00
2024-02-13T00:32:01.420Z,94479.00
2024-02-13T00:33:01.619Z,94481.00
2024-02-13T00:34:01.495Z,94484.00
2024-02-13T00:35:01.501Z,94485.00
2024-02-13T00:36:01.512Z,94488.00
2024-02-13T00:37:01.568Z,94490.00
2024-02-13T00:38:01.614Z,94495.00
2024-02-13T00:39:01.650Z,94496.00
2024-02-13T00:40:01.706Z,94500.00
2024-02-13T00:41:01.753Z,94499.00
2024-02-13T00:42:01.777Z,94499.00
2024-02-13T00:43:01.800Z,94499.00
2024-02-13T00:44:01.816Z,94502.00
2024-02-13T00:45:02.187Z,94502.00
2024-02-13T00:46:01.853Z,94504.00
2024-02-13T00:47:01.889Z,94505.00
2024-02-13T00:48:02.053Z,94505.00
2024-02-13T00:49:01.991Z,94505.00
2024-02-13T00:50:02.048Z,94509.00
2024-02-13T00:51:02.256Z,94509.00
2024-02-13T00:52:02.125Z,94511.00
2024-02-13T00:53:02.205Z,94513.00
2024-02-13T00:54:02.251Z,94513.00
2024-02-13T00:55:02.274Z,94515.00
2024-02-13T00:56:02.316Z,94519.00
2024-02-13T00:57:02.416Z,94523.00
2024-02-13T00:58:02.391Z,94522.00
2024-02-13T00:59:02.475Z,94527.00
2024-02-13T01:00:02.529Z,94525.00
2024-02-13T01:01:02.514Z,94527.00
2024-02-13T01:02:02.524Z,94530.00
2024-02-13T01:03:02.586Z,94531.00
2024-02-13T01:04:02.623Z,94534.00
2024-02-13T01:05:02.648Z,94538.00
2024-02-13T01:06:02.760Z,94539.00
2024-02-13T01:07:02.778Z,94540.00
2024-02-13T01:08:02.762Z,94539.00
2024-02-13T01:09:02.838Z,94539.00
2024-02-13T01:10:02.841Z,94540.00
2024-02-13T01:11:02.882Z,94541.00
2024-02-13T01:12:02.929Z,94539.00
2024-02-13T01:13:02.982Z,94539.00
2024-02-13T01:14:03.055Z,94538.00
2024-02-13T01:15:03.739Z,94539.00
2024-02-13T01:16:03.157Z,94542.00
2024-02-13T01:17:03.214Z,94543.00
2024-02-13T01:18:03.362Z,94544.00
2024-02-13T01:19:03.359Z,94545.00
2024-02-13T01:20:03.383Z,94548.00
2024-02-13T01:21:03.412Z,94550.00
2024-02-13T01:22:03.478Z,94550.00
2024-02-13T01:23:03.534Z,94553.00
2024-02-13T01:24:03.578Z,94552.00
2024-02-13T01:25:03.673Z,94552.00
2024-02-13T01:26:03.710Z,94556.00
2024-02-13T01:27:03.780Z,94558.00
2024-02-13T01:28:03.854Z,94562.00
2024-02-13T01:29:03.894Z,94565.00
2024-02-13T01:30:03.976Z,94565.00
2024-02-13T01:31:04.026Z,94567.00
2024-02-13T01:32:04.054Z,94565.00
2024-02-13T01:33:04.342Z,94568.00
2024-02-13T01:34:04.257Z,94567.00
2024-02-13T01:35:04.237Z,94569.00
2024-02-13T01:36:04.259Z,94569.00
2024-02-13T01:37:04.287Z,94572.00
2024-02-13T01:38:04.257Z,94571.00
2024-02-13T01:39:04.302Z,94571.00
2024-02-13T01:40:04.285Z,94571.00
2024-02-13T01:41:04.308Z,94572.00
2024-02-13T01:42:04.335Z,94572.00
2024-02-13T01:43:04.357Z,94577.00
2024-02-13T01:44:04.383Z,94578.00
2024-02-13T01:45:04.381Z,94579.00
2024-02-13T01:46:04.410Z,94580.00
2024-02-13T01:47:04.397Z,94582.00
2024-02-13T01:48:04.529Z,94584.00
2024-02-13T01:49:04.767Z,94585.00
2024-02-13T01:50:04.539Z,94589.00
2024-02-13T01:51:04.598Z,94589.00
2024-02-13T01:52:04.669Z,94592.00
2024-02-13T01:53:04.685Z,94591.00
2024-02-13T01:54:04.735Z,94591.00
2024-02-13T01:55:04.722Z,94596.00
2024-02-13T01:56:04.753Z,94599.00
2024-02-13T01:57:04.747Z,94597.00
2024-02-13T01:58:04.777Z,94597.00
2024-02-13T01:59:04.989Z,94595.00
2024-02-13T02:00:04.902Z,94598.00
2024-02-13T02:01:05.016Z,94597.00
2024-02-13T02:02:04.999Z,94601.00
2024-02-13T02:03:05.117Z,94604.00
2024-02-13T02:04:05.095Z,94603.00
2024-02-13T02:05:05.075Z,94606.00
2024-02-13T02:06:27.726Z,94607.00
2024-02-13T02:07:05.161Z,94610.00
2024-02-13T02:08:05.107Z,94612.00
2024-02-13T02:09:05.129Z,94615.00
2024-02-13T02:10:05.115Z,94615.00
2024-02-13T02:11:05.138Z,94620.00
2024-02-13T02:12:05.117Z,94620.00
2024-02-13T02:13:05.155Z,94622.00
2024-02-13T02:14:05.148Z,94623.00
2024-02-13T02:15:05.124Z,94624.00
2024-02-13T02:16:05.128Z,94625.00
2024-02-13T02:17:05.150Z,94629.00
2024-02-13T02:18:05.249Z,94630.00
2024-02-13T02:19:05.229Z,94632.00
2024-02-13T02:20:05.128Z,94634.00
2024-02-13T02:21:05.154Z,94632.00
2024-02-13T02:22:05.155Z,94633.00
2024-02-13T02:23:05.168Z,94631.00
2024-02-13T02:24:05.141Z,94634.00
2024-02-13T02:25:05.204Z,94636.00
2024-02-13T02:26:05.237Z,94640.00
2024-02-13T02:27:05.352Z,94642.00
2024-02-13T02:28:05.276Z,94640.00
2024-02-13T02:29:05.345Z,94644.00
2024-02-13T02:30:05.372Z,94642.00
2024-02-13T02:31:05.426Z,94641.00
2024-02-13T02:32:05.525Z,94646.00
2024-02-13T02:33:05.754Z,94645.00
2024-02-13T02:34:05.656Z,94646.00
2024-02-13T02:35:05.657Z,94643.00
2024-02-13T02:36:05.668Z,94642.00
2024-02-13T02:37:05.733Z,94640.00
2024-02-13T02:38:05.813Z,94642.00
2024-02-13T02:39:05.866Z,94643.00
2024-02-13T02:40:05.910Z,94645.00
2024-02-13T02:41:05.974Z,94646.00
2024-02-13T02:42:06.083Z,94650.00
2024-02-13T02:43:06.155Z,94653.00
2024-02-13T02:44:06.160Z,94655.00
2024-02-13T02:45:06.177Z,94658.00
2024-02-13T02:46:06.400Z,94659.00
2024-02-13T02:47:06.242Z,94658.00
2024-02-13T02:48:06.362Z,94661.00
2024-02-13T02:49:06.326Z,94663.00
2024-02-13T02:50:06.325Z,94663.00
2024-02-13T02:51:06.380Z,94668.00
2024-02-13T02:52:06.368Z,94669.00
2024-02-13T02:53:06.437Z,94670.00
2024-02-13T02:54:06.485Z,94671.00
2024-02-13T02:55:06.456Z,94672.00
2024-02-13T02:56:06.478Z,94676.00
2024-02-13T02:57:06.518Z,94678.00
2024-02-13T02:58:06.544Z,94675.00
2024-02-13T02:59:06.553Z,94674.00
2024-02-13T03:00:06.605Z,94677.00
2024-02-13T03:01:06.673Z,94678.00
2024-02-13T03:02:06.709Z,94680.00
2024-02-13T03:03:06.779Z,94683.00
2024-02-13T03:04:10.151Z,94684.00
2024-02-13T03:05:06.803Z,94684.00
2024-02-13T03:06:06.875Z,94682.00
2024-02-13T03:07:06.752Z,94686.00
2024-02-13T03:08:06.749Z,94687.00
2024-02-13T03:09:06.778Z,94689.00
2024-02-13T03:10:06.755Z,94692.00
2024-02-13T03:11:06.768Z,94694.00
2024-02-13T03:12:06.756Z,94694.00
2024-02-13T03:13:06.755Z,94694.00
2024-02-13T03:14:06.762Z,94696.00
2024-02-13T03:15:06.759Z,94694.00
2024-02-13T03:16:06.752Z,94692.00
2024-02-13T03:17:06.803Z,94688.00
2024-02-13T03:18:06.830Z,94694.00
2024-02-13T03:19:06.908Z,94696.00
2024-02-13T03:20:06.792Z,94700.00
2024-02-13T03:21:06.783Z,94706.00
2024-02-13T03:22:06.773Z,94707.00
2024-02-13T03:23:06.830Z,94709.00
2024-02-13T03:24:06.909Z,94709.00
2024-02-13T03:25:06.936Z,94708.00
2024-02-13T03:26:06.921Z,94710.00
2024-02-13T03:27:06.941Z,94710.00
2024-02-13T03:28:07.009Z,94713.00
2024-02-13T03:29:07.012Z,94716.00
2024-02-13T03:30:07.067Z,94719.00
2024-02-13T03:31:07.086Z,94718.00
2024-02-13T03:32:07.110Z,94719.00
2024-02-13T03:33:07.267Z,94719.00
2024-02-13T03:34:07.248Z,94721.00
2024-02-13T03:35:07.350Z,94722.00
2024-02-13T03:36:07.239Z,94722.00
2024-02-13T03:37:07.308Z,94724.00
2024-02-13T03:38:07.420Z,94725.00
2024-02-13T03:39:07.483Z,94725.00
2024-02-13T03:40:07.602Z,94727.00
2024-02-13T03:41:07.417Z,94728.00
2024-02-13T03:42:07.408Z,94732.00
2024-02-13T03:43:07.414Z,94735.00
2024-02-13T03:44:07.437Z,94739.00
2024-02-13T03:45:07.436Z,94740.00
2024-02-13T03:46:07.427Z,94740.00
2024-02-13T03:47:07.413Z,94740.00
2024-02-13T03:48:07.569Z,94737.00
2024-02-13T03:49:07.476Z,94738.00
2024-02-13T03:50:07.476Z,94738.00
2024-02-13T03:51:07.504Z,94742.00
2024-02-13T03:52:07.523Z,94740.00
2024-02-13T03:53:07.486Z,94742.00
2024-02-13T03:54:07.540Z,94744.00
2024-02-13T03:55:07.608Z,94747.00
2024-02-13T03:56:07.606Z,94746.00
2024-02-13T03:57:07.657Z,94749.00
2024-02-13T03:58:07.723Z,94754.00
2024-02-13T03:59:07.779Z,94758.00
2024-02-13T04:00:07.854Z,94758.00
2024-02-13T04:01:07.892Z,94759.00
2024-02-13T04:02:07.886Z,94760.00
2024-02-13T04:03:07.914Z,94762.00
2024-02-13T04:04:08.076Z,94764.00
2024-02-13T04:05:08.022Z,94767.00
2024-02-13T04:06:08.128Z,94768.00
2024-02-13T04:07:08.108Z,94770.00
2024-02-13T04:08:08.166Z,94770.00
2024-02-13T04:09:08.327Z,94777.00
2024-02-13T04:10:08.283Z,94780.00
2024-02-13T04:11:08.346Z,94785.00
2024-02-13T04:12:08.375Z,94784.00
2024-02-13T04:13:08.412Z,94784.00
2024-02-13T04:14:08.436Z,94785.00
2024-02-13T04:15:08.494Z,94788.00
2024-02-13T04:16:08.549Z,94788.00
2024-02-13T04:17:08.517Z,94789.00
2024-02-13T04:18:08.572Z,94791.00
2024-02-13T04:19:08.738Z,94793.00
2024-02-13T04:20:08.577Z,94793.00
2024-02-13T04:21:08.592Z,94794.00
2024-02-13T04:22:08.659Z,94792.00
2024-02-13T04:23:08.697Z,94794.00
2024-02-13T04:25:08.786Z,94795.00
2024-02-13T04:26:18.102Z,94791.00
2024-02-13T04:27:09.859Z,94787.00
2024-02-13T04:28:08.853Z,94786.00
2024-02-13T04:29:08.849Z,94786.00
2024-02-13T04:30:08.860Z,94790.00
2024-02-13T04:31:08.878Z,94789.00
2024-02-13T04:32:08.855Z,94790.00
2024-02-13T04:33:08.997Z,94789.00
2024-02-13T04:34:09.036Z,94789.00
2024-02-13T04:35:08.890Z,94790.00
2024-02-13T04:36:09.328Z,94793.00
2024-02-13T04:37:08.861Z,94793.00
2024-02-13T04:38:08.985Z,94793.00
2024-02-13T04:39:09.816Z,94792.00
2024-02-13T04:40:09.680Z,94797.00
2024-02-13T04:41:09.002Z,94797.00
2024-02-13T04:42:09.041Z,94803.00
2024-02-13T04:43:09.107Z,94808.00
2024-02-13T04:44:09.175Z,94808.00
2024-02-13T04:45:09.185Z,94812.00
2024-02-13T04:46:09.237Z,94811.00
2024-02-13T04:47:09.291Z,94811.00
2024-02-13T04:48:09.538Z,94813.00
2024-02-13T04:49:16.983Z,94811.00
2024-02-13T04:50:18.794Z,94813.00
2024-02-13T04:51:16.929Z,94815.00
2024-02-13T04:52:16.916Z,94815.00
2024-02-13T04:53:16.974Z,94812.00
2024-02-13T04:54:16.961Z,94812.00
2024-02-13T04:55:16.953Z,94811.00
2024-02-13T04:56:17.159Z,94812.00
2024-02-13T04:57:16.944Z,94811.00
2024-02-13T04:58:16.923Z,94811.00
2024-02-13T04:59:16.995Z,94810.00
2024-02-13T05:00:16.938Z,94813.00
2024-02-13T05:01:16.985Z,94812.00
2024-02-13T05:02:16.994Z,94817.00
2024-02-13T05:03:16.956Z,94817.00
2024-02-13T05:04:17.618Z,94817.00
2024-02-13T05:05:17.008Z,94817.00
2024-02-13T05:06:17.103Z,94822.00
2024-02-13T05:07:16.961Z,94823.00
2024-02-13T05:08:16.980Z,94826.00
2024-02-13T05:09:16.981Z,94825.00
2024-02-13T05:10:16.955Z,94827.00
2024-02-13T05:11:17.034Z,94825.00
2024-02-13T05:12:16.957Z,94829.00
2024-02-13T05:13:16.987Z,94831.00
2024-02-13T05:14:16.986Z,94833.00
2024-02-13T05:15:16.975Z,94833.00
2024-02-13T05:16:16.960Z,94831.00
2024-02-13T05:17:16.989Z,94832.00
2024-02-13T05:18:17.093Z,94831.00
2024-02-13T05:20:17.053Z,94834.00
2024-02-13T05:21:16.980Z,94837.00
2024-02-13T05:22:16.975Z,94837.00
2024-02-13T05:23:17.038Z,94839.00
2024-02-13T05:24:16.995Z,94842.00
2024-02-13T05:25:16.990Z,94841.00
2024-02-13T05:26:17.009Z,94843.00
2024-02-13T05:27:16.983Z,94842.00
2024-02-13T05:28:16.989Z,94845.00
2024-02-13T05:29:17.055Z,94844.00
2024-02-13T05:30:16.990Z,94847.00
2024-02-13T05:31:16.995Z,94847.00
2024-02-13T05:32:17.044Z,94848.00
2024-02-13T05:33:17.121Z,94850.00
2024-02-13T05:34:17.069Z,94847.00
2024-02-13T05:35:17.052Z,94847.00
2024-02-13T05:36:16.996Z,94846.00
2024-02-13T05:37:17.028Z,94848.00
2024-02-13T05:38:17.146Z,94848.00
2024-02-13T05:39:17.017Z,94853.00
2024-02-13T05:40:17.004Z,94855.00
2024-02-13T05:41:17.107Z,94856.00
2024-02-13T05:42:17.116Z,94857.00
2024-02-13T05:43:17.123Z,94855.00
2024-02-13T05:44:17.200Z,94856.00
2024-02-13T05:45:17.218Z,94855.00
2024-02-13T05:46:17.284Z,94857.00
2024-02-13T05:47:17.418Z,94858.00
2024-02-13T05:48:17.406Z,94859.00
2024-02-13T05:49:17.501Z,94858.00
2024-02-13T05:50:17.558Z,94861.00
2024-02-13T05:51:17.449Z,94862.00
2024-02-13T05:52:17.466Z,94867.00
2024-02-13T05:53:17.499Z,94867.00
2024-02-13T05:54:17.598Z,94870.00
2024-02-13T05:55:17.654Z,94869.00
2024-02-13T05:56:26.574Z,94870.00
2024-02-13T05:57:18.604Z,94867.00
2024-02-13T05:58:17.562Z,94867.00
2024-02-13T05:59:17.568Z,94867.00
2024-02-13T06:00:17.638Z,94865.00
2024-02-13T06:01:17.696Z,94865.00
2024-02-13T06:02:17.590Z,94867.00
2024-02-13T06:03:17.602Z,94870.00
2024-02-13T06:04:17.565Z,94873.00
2024-02-13T06:05:17.606Z,94876.00
2024-02-13T06:06:17.644Z,94878.00
2024-02-13T06:07:17.570Z,94881.00
2024-02-13T06:08:17.678Z,94879.00
2024-02-13T06:09:17.696Z,94878.00
2024-02-13T06:10:17.753Z,94880.00
2024-02-13T06:11:17.873Z,94882.00
2024-02-13T06:12:17.904Z,94882.00
2024-02-13T06:13:17.948Z,94883.00
2024-02-13T06:14:18.030Z,94883.00
2024-02-13T06:15:18.065Z,94884.00
2024-02-13T06:16:18.106Z,94887.00
2024-02-13T06:17:18.178Z,94889.00
2024-02-13T06:18:18.621Z,94889.00
2024-02-13T06:19:18.296Z,94894.00
2024-02-13T06:20:18.266Z,94893.00
2024-02-13T06:21:18.271Z,94898.00
2024-02-13T06:22:18.345Z,94898.00
2024-02-13T06:23:18.363Z,94900.00
2024-02-13T06:24:18.398Z,94899.00
2024-02-13T06:25:18.402Z,94898.00
2024-02-13T06:26:18.480Z,94901.00
2024-02-13T06:27:18.455Z,94906.00
2024-02-13T06:28:18.552Z,94907.00
2024-02-13T06:29:18.620Z,94908.00
2024-02-13T06:30:18.627Z,94909.00
2024-02-13T06:31:18.664Z,94909.00
2024-02-13T06:32:18.713Z,94908.00
2024-02-13T06:33:18.936Z,94907.00
2024-02-13T06:34:18.807Z,94909.00
2024-02-13T06:35:18.841Z,94912.00
2024-02-13T06:36:18.818Z,94915.00
2024-02-13T06:37:18.894Z,94917.00
2024-02-13T06:38:18.952Z,94923.00
2024-02-13T06:39:18.921Z,94927.00
2024-02-13T06:40:19.002Z,94927.00
2024-02-13T06:41:19.022Z,94928.00
2024-02-13T06:42:19.059Z,94928.00
2024-02-13T06:43:19.099Z,94928.00
2024-02-13T06:44:19.156Z,94925.00
2024-02-13T06:45:19.140Z,94926.00
2024-02-13T06:46:19.165Z,94929.00
2024-02-13T06:47:19.220Z,94931.00
2024-02-13T06:49:19.275Z,94933.00
2024-02-13T06:50:19.372Z,94935.00
2024-02-13T06:51:19.472Z,94936.00
2024-02-13T06:52:19.269Z,94938.00
2024-02-13T06:53:19.356Z,94939.00
2024-02-13T06:54:19.384Z,94939.00
2024-02-13T06:55:19.327Z,94940.00
2024-02-13T06:56:19.451Z,94940.00
2024-02-13T06:57:19.424Z,94941.00
2024-02-13T06:58:19.477Z,94942.00
2024-02-13T06:59:19.513Z,94943.00
2024-02-13T07:00:20.111Z,94943.00
2024-02-13T07:01:19.638Z,94943.00
2024-02-13T07:02:19.716Z,94944.00
2024-02-13T07:03:19.687Z,94945.00
2024-02-13T07:04:19.776Z,94946.00
2024-02-13T07:05:19.826Z,94946.00
2024-02-13T07:06:32.900Z,94945.00
2024-02-13T07:08:19.906Z,94946.00
2024-02-13T07:09:19.901Z,94948.00
2024-02-13T07:10:19.867Z,94947.00
2024-02-13T07:11:19.802Z,94948.00
2024-02-13T07:12:19.769Z,94950.00
2024-02-13T07:13:19.837Z,94949.00
2024-02-13T07:14:21.649Z,94947.00
2024-02-13T07:15:20.116Z,94950.00
2024-02-13T07:16:19.815Z,94951.00
2024-02-13T07:17:19.809Z,94951.00
2024-02-13T07:18:19.894Z,94951.00
2024-02-13T07:19:19.884Z,94952.00
2024-02-13T07:20:19.883Z,94952.00
2024-02-13T07:21:19.795Z,94951.00
2024-02-13T07:22:19.805Z,94953.00
2024-02-13T07:23:19.892Z,94954.00
2024-02-13T07:24:19.810Z,94955.00
2024-02-13T07:25:19.930Z,94956.00
2024-02-13T07:26:19.837Z,94957.00
2024-02-13T07:27:19.812Z,94958.00
2024-02-13T07:28:19.812Z,94960.00
2024-02-13T07:29:19.853Z,94958.00
2024-02-13T07:30:19.889Z,94960.00
2024-02-13T07:31:19.930Z,94961.00
2024-02-13T07:32:19.822Z,94961.00
2024-02-13T07:33:19.882Z,94962.00
2024-02-13T07:34:19.903Z,94965.00
2024-02-13T07:35:19.840Z,94963.00
2024-02-13T07:36:19.836Z,94965.00
2024-02-13T07:37:19.842Z,94966.00
2024-02-13T07:38:19.830Z,94966.00
2024-02-13T07:39:19.820Z,94968.00
2024-02-13T07:40:19.821Z,94969.00
2024-02-13T07:41:19.847Z,94970.00
2024-02-13T07:42:19.829Z,94972.00
2024-02-13T07:43:19.838Z,94973.00
2024-02-13T07:44:19.876Z,94973.00
2024-02-13T07:45:19.874Z,94977.00
2024-02-13T07:46:19.874Z,94977.00
2024-02-13T07:47:19.955Z,94977.00
2024-02-13T07:48:20.136Z,94980.00
2024-02-13T07:49:19.974Z,94980.00
2024-02-13T07:50:20.007Z,94982.00
2024-02-13T07:51:20.007Z,94984.00
2024-02-13T07:52:20.032Z,94986.00
2024-02-13T07:53:20.090Z,94986.00
2024-02-13T07:54:20.118Z,94986.00
2024-02-13T07:55:20.206Z,94990.00
2024-02-13T07:56:20.253Z,94987.00
2024-02-13T07:57:20.188Z,94992.00
2024-02-13T07:58:20.243Z,94992.00
2024-02-13T07:59:20.307Z,94992.00
2024-02-13T08:00:20.337Z,94991.00
2024-02-13T08:01:20.365Z,94993.00
2024-02-13T08:02:20.378Z,94990.00
2024-02-13T08:03:20.400Z,94991.00
2024-02-13T08:04:20.488Z,94992.00
2024-02-13T08:05:20.590Z,94992.00
2024-02-13T08:06:20.564Z,94990.00
2024-02-13T08:07:20.492Z,94992.00
2024-02-13T08:08:20.580Z,94997.00
2024-02-13T08:09:20.562Z,95000.00
2024-02-13T08:10:20.596Z,95000.00
2024-02-13T08:11:20.628Z,95002.00
2024-02-13T08:12:20.640Z,95002.00
2024-02-13T08:13:20.698Z,95003.00
2024-02-13T08:14:20.787Z,95003.00
2024-02-13T08:15:20.784Z,95007.00
2024-02-13T08:16:20.794Z,95007.00
2024-02-13T08:17:20.937Z,95009.00
2024-02-13T08:18:20.968Z,95011.00
2024-02-13T08:19:20.905Z,95012.00
2024-02-13T08:20:20.972Z,95012.00
2024-02-13T08:21:21.030Z,95010.00
2024-02-13T08:22:20.962Z,95011.00
2024-02-13T08:23:20.966Z,95010.00
2024-02-13T08:24:22.291Z,95013.00
2024-02-13T08:25:21.039Z,95013.00
2024-02-13T08:26:21.065Z,95012.00
2024-02-13T08:27:21.085Z,95014.00
2024-02-13T08:28:21.131Z,95013.00
2024-02-13T08:29:21.222Z,95011.00
2024-02-13T08:30:21.233Z,95010.00
2024-02-13T08:31:21.294Z,95015.00
2024-02-13T08:32:21.322Z,95013.00
2024-02-13T08:33:21.396Z,95016.00
2024-02-13T08:34:21.555Z,95014.00
2024-02-13T08:35:21.455Z,95012.00
2024-02-13T08:36:21.481Z,95013.00
2024-02-13T08:37:21.425Z,95015.00
2024-02-13T08:38:21.476Z,95013.00
2024-02-13T08:39:21.501Z,95014.00
2024-02-13T08:40:21.499Z,95018.00
2024-02-13T08:41:21.554Z,95015.00
2024-02-13T08:42:21.596Z,95013.00
2024-02-13T08:43:21.619Z,95015.00
2024-02-13T08:44:21.635Z,95016.00
2024-02-13T08:45:23.144Z,95013.00
2024-02-13T08:46:21.669Z,95013.00
2024-02-13T08:47:21.769Z,95019.00
2024-02-13T08:48:21.873Z,95021.00
2024-02-13T08:49:21.785Z,95019.00
2024-02-13T08:50:22.018Z,95020.00
2024-02-13T08:51:21.714Z,95023.00
2024-02-13T08:52:21.678Z,95022.00
2024-02-13T08:53:21.761Z,95024.00
2024-02-13T08:54:21.684Z,95023.00
2024-02-13T08:55:21.684Z,95023.00
2024-02-13T08:56:21.727Z,95021.00
2024-02-13T08:57:21.677Z,95020.00
2024-02-13T08:58:21.682Z,95021.00
2024-02-13T08:59:21.921Z,95020.00
2024-02-13T09:00:21.761Z,95020.00
2024-02-13T09:01:21.861Z,95022.00
2024-02-13T09:02:21.691Z,95022.00
2024-02-13T09:03:21.708Z,95024.00
2024-02-13T09:04:21.733Z,95022.00
2024-02-13T09:05:21.806Z,95019.00
2024-02-13T09:06:22.019Z,95019.00
2024-02-13T09:07:21.702Z,95020.00
2024-02-13T09:08:21.684Z,95020.00
2024-02-13T09:09:21.674Z,95020.00
2024-02-13T09:10:21.703Z,95019.00
2024-02-13T09:11:21.726Z,95018.00
2024-02-13T09:12:21.698Z,95020.00
2024-02-13T09:13:21.749Z,95018.00
2024-02-13T09:14:21.740Z,95020.00
2024-02-13T09:15:21.701Z,95018.00
2024-02-13T09:16:21.721Z,95017.00
2024-02-13T09:17:21.821Z,95015.00
2024-02-13T09:18:21.863Z,95014.00
2024-02-13T09:19:21.798Z,95020.00
2024-02-13T09:20:21.782Z,95019.00
2024-02-13T09:21:21.723Z,95020.00
2024-02-13T09:22:21.726Z,95019.00
2024-02-13T09:23:21.739Z,95019.00
2024-02-13T09:24:21.724Z,95019.00
2024-02-13T09:25:21.777Z,95018.00
2024-02-13T09:26:21.858Z,95017.00
2024-02-13T09:27:21.706Z,95017.00
2024-02-13T09:28:21.740Z,95015.00
2024-02-13T09:29:21.725Z,95018.00
2024-02-13T09:30:21.740Z,95018.00
2024-02-13T09:31:21.743Z,95019.00
2024-02-13T09:32:21.733Z,95015.00
2024-02-13T09:33:21.889Z,95018.00
2024-02-13T09:34:21.786Z,95018.00
2024-02-13T09:35:21.751Z,95018.00
2024-02-13T09:36:21.791Z,95017.00
2024-02-13T09:37:21.802Z,95020.00
2024-02-13T09:38:21.951Z,95019.00
2024-02-13T09:39:21.895Z,95022.00
2024-02-13T09:40:21.971Z,95020.00
2024-02-13T09:41:22.043Z,95020.00
2024-02-13T09:42:22.002Z,95018.00
2024-02-13T09:43:22.044Z,95016.00
2024-02-13T09:44:22.125Z,95018.00
2024-02-13T09:45:22.169Z,95017.00
2024-02-13T09:46:22.589Z,95016.00
2024-02-13T09:47:22.222Z,95016.00
2024-02-13T09:48:22.519Z,95019.00
2024-02-13T09:49:22.318Z,95019.00
2024-02-13T09:50:22.260Z,95019.00
2024-02-13T09:51:22.281Z,95018.00
2024-02-13T09:52:22.295Z,95019.00
2024-02-13T09:53:22.330Z,95017.00
2024-02-13T09:54:22.376Z,95018.00
2024-02-13T09:55:22.442Z,95019.00
2024-02-13T09:56:22.542Z,95020.00
2024-02-13T09:57:22.595Z,95020.00
2024-02-13T09:58:22.662Z,95023.00
2024-02-13T09:59:22.754Z,95022.00
2024-02-13T10:00:22.760Z,95025.00
2024-02-13T10:01:22.782Z,95023.00
2024-02-13T10:02:22.821Z,95024.00
2024-02-13T10:03:22.853Z,95023.00
2024-02-13T10:04:22.832Z,95022.00
2024-02-13T10:05:23.072Z,95025.00
2024-02-13T10:06:22.990Z,95024.00
2024-02-13T10:07:22.969Z,95022.00
2024-02-13T10:08:23.054Z,95022.00
2024-02-13T10:09:23.078Z,95024.00
2024-02-13T10:10:23.176Z,95024.00
2024-02-13T10:11:32.364Z,95023.00
2024-02-13T10:12:32.319Z,95023.00
2024-02-13T10:13:32.316Z,95024.00
2024-02-13T10:14:32.341Z,95024.00
2024-02-13T10:15:32.344Z,95022.00
2024-02-13T10:16:32.311Z,95024.00
2024-02-13T10:17:32.417Z,95023.00
2024-02-13T10:18:32.662Z,95023.00
2024-02-13T10:19:34.134Z,95022.00
2024-02-13T10:20:32.482Z,95020.00
2024-02-13T10:21:32.374Z,95018.00
2024-02-13T10:22:32.368Z,95018.00
2024-02-13T10:23:32.407Z,95019.00
2024-02-13T10:24:32.954Z,95018.00
2024-02-13T10:25:32.383Z,95018.00
2024-02-13T10:26:32.397Z,95018.00
2024-02-13T10:27:32.365Z,95016.00
2024-02-13T10:28:32.350Z,95014.00
2024-02-13T10:29:32.393Z,95014.00
2024-02-13T10:30:32.429Z,95012.00
2024-02-13T10:31:32.356Z,95013.00
2024-02-13T10:32:32.403Z,95008.00
2024-02-13T10:33:32.438Z,95010.00
2024-02-13T10:34:32.357Z,95008.00
2024-02-13T10:35:32.412Z,95007.00
2024-02-13T10:36:32.419Z,95008.00
2024-02-13T10:37:32.401Z,95007.00
2024-02-13T10:38:32.517Z,95006.00
2024-02-13T10:39:32.386Z,95004.00
2024-02-13T10:40:32.453Z,95002.00
2024-02-13T10:41:32.395Z,95001.00
2024-02-13T10:42:32.392Z,94996.00
2024-02-13T10:43:32.378Z,94997.00
2024-02-13T10:44:32.429Z,94993.00
2024-02-13T10:45:32.499Z,94993.00
2024-02-13T10:46:32.376Z,94988.00
2024-02-13T10:47:32.462Z,94988.00
2024-02-13T10:48:32.429Z,94988.00
2024-02-13T10:49:32.425Z,94989.00
2024-02-13T10:50:32.409Z,94987.00
2024-02-13T10:51:32.438Z,94987.00
2024-02-13T10:52:32.391Z,94986.00
2024-02-13T10:53:32.456Z,94986.00
2024-02-13T10:54:32.401Z,94982.00
2024-02-13T10:55:32.384Z,94983.00
2024-02-13T10:56:32.407Z,94984.00
2024-02-13T10:57:32.406Z,94981.00
2024-02-13T10:58:33.469Z,94983.00
2024-02-13T10:59:32.532Z,94983.00
2024-02-13T11:00:32.458Z,94979.00
2024-02-13T11:01:32.560Z,94981.00
2024-02-13T11:02:32.560Z,94981.00
2024-02-13T11:03:32.519Z,94978.00
2024-02-13T11:04:32.792Z,94977.00
2024-02-13T11:05:32.582Z,94980.00
2024-02-13T11:06:32.642Z,94977.00
2024-02-13T11:07:32.621Z,94979.00
2024-02-13T11:08:32.674Z,94976.00
2024-02-13T11:09:32.645Z,94977.00
2024-02-13T11:10:32.663Z,94977.00
2024-02-13T11:11:32.700Z,94976.00
2024-02-13T11:12:32.647Z,94978.00
2024-02-13T11:13:32.648Z,94978.00
2024-02-13T11:14:32.650Z,94979.00
2024-02-13T11:15:32.638Z,94979.00
2024-02-13T11:16:32.673Z,94982.00
2024-02-13T11:17:32.784Z,94982.00
2024-02-13T11:18:32.874Z,94980.00
2024-02-13T11:19:32.685Z,94981.00
2024-02-13T11:20:32.677Z,94982.00
2024-02-13T11:21:32.704Z,94978.00
2024-02-13T11:22:32.705Z,94975.00
2024-02-13T11:23:32.784Z,94976.00
2024-02-13T11:24:33.092Z,94978.00
2024-02-13T11:25:32.798Z,94975.00
2024-02-13T11:26:32.872Z,94972.00
2024-02-13T11:27:33.196Z,94970.00
2024-02-13T11:28:32.879Z,94972.00
2024-02-13T11:29:33.002Z,94972.00
2024-02-13T11:30:33.161Z,94971.00
2024-02-13T11:31:33.000Z,94971.00
2024-02-13T11:32:33.073Z,94970.00
2024-02-13T11:33:33.208Z,94969.00
2024-02-13T11:34:33.420Z,94967.00
2024-02-13T11:35:33.237Z,94967.00
2024-02-13T11:36:33.428Z,94963.00
2024-02-13T11:37:33.111Z,94961.00
2024-02-13T11:38:33.260Z,94961.00
2024-02-13T11:39:33.147Z,94960.00
2024-02-13T11:40:33.164Z,94961.00
2024-02-13T11:41:33.277Z,94958.00
2024-02-13T11:42:33.271Z,94957.00
2024-02-13T11:43:33.290Z,94959.00
2024-02-13T11:44:33.355Z,94957.00
2024-02-13T11:45:33.365Z,94957.00
2024-02-13T11:46:33.463Z,94957.00
2024-02-13T11:47:33.630Z,94956.00
2024-02-13T11:48:35.436Z,94954.00
2024-02-13T11:49:33.835Z,94954.00